Time;durP1;ratioP1;P1;durP2;ratioP2;P2;SDS_P1;SDS_P2;PMS_P1;PMS_P2;Temp;Humidity;BMP_temperature;BMP_pressure;BME280_temperature;BME280_humidity;BME280_pressure;Samples;Min_cycle;Max_cycle;Signal;HPM_P1;HPM_P2
2024/01/14 00:01:46;;;;;;;14.35;13.25;;;3.70;99.90;;;;;;5014412;28;20275;-36
2024/01/14 00:04:12;;;;;;;14.07;13.07;;;3.70;99.90;;;;;;5011125;28;20217;-38
2024/01/14 00:06:38;;;;;;;14.00;13.00;;;3.70;99.90;;;;;;5003267;28;20179;-36
2024/01/14 00:09:03;;;;;;;14.43;13.17;;;3.70;99.90;;;;;;5005419;28;20182;-36
2024/01/14 00:11:29;;;;;;;14.00;13.00;;;3.60;99.90;;;;;;4988934;28;20186;-36
2024/01/14 00:13:54;;;;;;;14.40;13.30;;;3.70;99.90;;;;;;5017132;28;20214;-37
2024/01/14 00:16:20;;;;;;;14.47;13.47;;;3.70;99.90;;;;;;5011570;28;20190;-37
2024/01/14 00:18:45;;;;;;;13.70;12.80;;;3.70;99.90;;;;;;5017628;28;20249;-36
2024/01/14 00:21:11;;;;;;;14.57;13.67;;;3.60;99.90;;;;;;5009058;28;20646;-36
2024/01/14 00:23:36;;;;;;;13.13;12.13;;;3.60;99.90;;;;;;5030041;28;20539;-36
2024/01/14 00:26:02;;;;;;;14.20;13.20;;;3.70;99.90;;;;;;5030080;28;20182;-36
2024/01/14 00:28:28;;;;;;;14.03;13.03;;;3.60;99.90;;;;;;5026736;28;20182;-36
2024/01/14 00:30:53;;;;;;;14.30;13.40;;;3.60;99.90;;;;;;5032724;28;20194;-37
2024/01/14 00:33:19;;;;;;;13.80;12.80;;;3.70;99.90;;;;;;5014123;28;20188;-36
2024/01/14 00:35:45;;;;;;;14.33;13.43;;;3.70;99.90;;;;;;5030121;28;21105;-36
2024/01/14 00:38:10;;;;;;;14.70;13.50;;;3.70;99.90;;;;;;5035948;28;20419;-35
2024/01/14 00:40:37;;;;;;;14.60;13.60;;;3.70;99.90;;;;;;5031757;28;20195;-35
2024/01/14 00:43:03;;;;;;;14.60;13.60;;;3.70;99.90;;;;;;5036522;28;20282;-36
2024/01/14 00:45:28;;;;;;;13.53;12.53;;;3.60;99.90;;;;;;5036186;28;20194;-36
2024/01/14 00:47:54;;;;;;;14.27;13.17;;;3.70;99.90;;;;;;5008808;28;20993;-37
2024/01/14 00:50:20;;;;;;;13.90;12.83;;;3.60;99.90;;;;;;5023265;28;20201;-36
2024/01/14 00:52:46;;;;;;;13.80;12.90;;;3.70;99.90;;;;;;5031365;28;20186;-36
2024/01/14 00:55:11;;;;;;;15.00;13.70;;;3.70;99.90;;;;;;5036711;28;20209;-36
2024/01/14 00:57:37;;;;;;;13.33;12.47;;;3.70;99.90;;;;;;5030315;28;20546;-36
2024/01/14 01:00:04;;;;;;;13.37;12.63;;;3.70;99.90;;;;;;5038667;28;21010;-36
2024/01/14 01:02:30;;;;;;;14.13;13.13;;;3.70;99.90;;;;;;5026565;28;20272;-36
2024/01/14 01:04:56;;;;;;;14.17;13.17;;;3.70;99.90;;;;;;5028988;28;20183;-37
2024/01/14 01:07:21;;;;;;;14.20;13.10;;;3.70;99.90;;;;;;5031401;28;20268;-38
2024/01/14 01:09:47;;;;;;;14.03;13.00;;;3.80;99.90;;;;;;5035477;28;20185;-38
2024/01/14 01:12:12;;;;;;;14.87;13.77;;;3.80;99.90;;;;;;5029681;28;21085;-36
2024/01/14 01:14:38;;;;;;;13.93;13.03;;;3.80;99.90;;;;;;5036563;28;20236;-36
2024/01/14 01:17:04;;;;;;;14.33;13.33;;;3.90;99.90;;;;;;5036898;28;20186;-36
2024/01/14 01:19:30;;;;;;;14.15;13.25;;;3.80;99.90;;;;;;5032756;28;20254;-37
2024/01/14 01:21:55;;;;;;;13.77;12.87;;;3.80;99.90;;;;;;5033852;28;20205;-36
2024/01/14 01:24:21;;;;;;;14.37;13.37;;;3.70;99.90;;;;;;5032099;28;20276;-37
2024/01/14 01:26:47;;;;;;;13.77;12.80;;;3.80;99.90;;;;;;5031555;28;20644;-37
2024/01/14 01:29:12;;;;;;;13.80;12.90;;;3.80;99.90;;;;;;5029540;28;20265;-38
2024/01/14 01:31:38;;;;;;;13.90;13.00;;;3.80;99.90;;;;;;5024513;28;20190;-37
2024/01/14 01:34:03;;;;;;;13.43;12.53;;;3.70;99.90;;;;;;5003074;28;20190;-36
2024/01/14 01:36:29;;;;;;;14.20;13.30;;;3.80;99.90;;;;;;5028747;28;20285;-37
2024/01/14 01:38:55;;;;;;;15.00;13.97;;;3.70;99.90;;;;;;5022789;28;20190;-37
2024/01/14 01:41:22;;;;;;;15.03;13.93;;;3.70;99.90;;;;;;5003587;28;20202;-37
2024/01/14 01:43:47;;;;;;;14.43;13.43;;;3.70;99.90;;;;;;5031951;28;20185;-37
2024/01/14 01:46:14;;;;;;;14.43;13.43;;;3.70;99.90;;;;;;5034565;28;20187;-37
2024/01/14 01:48:40;;;;;;;14.60;13.50;;;3.70;99.90;;;;;;5030160;28;20198;-36
2024/01/14 01:51:06;;;;;;;14.10;13.10;;;3.70;99.90;;;;;;5023882;28;20198;-36
2024/01/14 01:53:32;;;;;;;14.40;13.40;;;3.60;99.90;;;;;;5030965;28;20194;-36
2024/01/14 01:55:59;;;;;;;14.23;13.30;;;3.70;99.90;;;;;;5030841;28;20250;-36
2024/01/14 01:58:24;;;;;;;13.60;12.70;;;3.60;99.90;;;;;;5025438;28;20512;-37
2024/01/14 02:00:51;;;;;;;14.43;13.23;;;3.60;99.90;;;;;;5033853;28;20186;-36
2024/01/14 02:03:18;;;;;;;14.75;13.65;;;3.60;99.90;;;;;;5023227;28;20191;-58
2024/01/14 02:05:45;;;;;;;14.90;13.85;;;3.70;99.90;;;;;;5037873;28;20185;-56
2024/01/14 02:08:12;;;;;;;14.65;13.75;;;3.70;99.90;;;;;;5025709;28;20174;-54
2024/01/14 02:10:37;;;;;;;14.20;13.30;;;3.70;99.90;;;;;;5034771;28;20262;-55
2024/01/14 02:13:04;;;;;;;15.27;14.03;;;3.60;99.90;;;;;;5028824;28;20339;-57
2024/01/14 02:15:30;;;;;;;13.75;12.95;;;3.60;99.90;;;;;;5032939;28;20266;-57
2024/01/14 02:17:55;;;;;;;14.40;13.50;;;3.60;99.90;;;;;;5023197;28;20194;-56
2024/01/14 02:20:21;;;;;;;15.13;14.03;;;3.60;99.90;;;;;;5035529;28;20828;-57
2024/01/14 02:22:50;;;;;;;14.07;13.20;;;3.60;99.90;;;;;;5016630;28;20210;-36
2024/01/14 02:25:16;;;;;;;14.40;13.50;;;3.60;99.90;;;;;;5031372;28;20220;-36
2024/01/14 02:27:42;;;;;;;14.20;13.20;;;3.70;99.90;;;;;;5035715;28;20186;-37
2024/01/14 02:30:12;;;;;;;14.00;13.10;;;3.60;99.90;;;;;;5041223;28;20173;-37
2024/01/14 02:32:38;;;;;;;13.75;12.95;;;3.60;99.90;;;;;;5035679;28;20193;-36
2024/01/14 02:35:07;;;;;;;13.40;12.52;;;3.60;99.90;;;;;;5033308;28;20190;-37
2024/01/14 02:37:33;;;;;;;14.82;13.73;;;3.60;99.90;;;;;;5038220;28;20296;-36
2024/01/14 02:39:59;;;;;;;14.15;12.93;;;3.60;99.90;;;;;;5037088;28;20537;-36
2024/01/14 02:42:24;;;;;;;13.10;12.30;;;3.60;99.90;;;;;;5033427;28;20213;-36
2024/01/14 02:44:50;;;;;;;14.60;13.43;;;3.60;99.90;;;;;;5042500;28;20243;-38
2024/01/14 02:47:15;;;;;;;14.37;13.27;;;3.60;99.90;;;;;;5038282;28;20207;-37
2024/01/14 02:49:41;;;;;;;13.20;12.40;;;3.60;99.90;;;;;;5033436;28;20696;-36
2024/01/14 02:52:07;;;;;;;13.80;12.90;;;3.60;99.90;;;;;;5037859;28;20217;-38
2024/01/14 02:54:33;;;;;;;14.02;13.07;;;3.70;99.90;;;;;;5010597;28;20441;-36
2024/01/14 02:56:59;;;;;;;14.40;13.40;;;3.60;99.90;;;;;;5039636;28;20197;-38
2024/01/14 02:59:24;;;;;;;14.23;13.30;;;3.70;99.90;;;;;;5036052;28;20553;-37
2024/01/14 03:01:50;;;;;;;15.10;13.80;;;3.70;99.90;;;;;;5034056;28;20235;-37
2024/01/14 03:04:35;;;;;;;14.43;13.43;;;3.60;99.90;;;;;;5036893;28;20273;-36
2024/01/14 03:07:01;;;;;;;14.00;13.00;;;3.60;99.90;;;;;;5024245;28;20281;-37
2024/01/14 03:09:26;;;;;;;14.47;13.43;;;3.70;99.90;;;;;;5012916;28;20239;-37
2024/01/14 03:11:52;;;;;;;13.90;13.00;;;3.60;99.90;;;;;;5023208;28;20248;-36
2024/01/14 03:14:18;;;;;;;15.13;14.03;;;3.60;99.90;;;;;;5030040;28;20193;-38
2024/01/14 03:16:43;;;;;;;14.63;13.53;;;3.50;99.90;;;;;;5030201;28;20296;-37
2024/01/14 03:19:09;;;;;;;14.17;13.07;;;3.50;99.90;;;;;;5035248;28;20800;-37
2024/01/14 03:21:36;;;;;;;14.73;13.63;;;3.40;99.90;;;;;;5040185;28;20751;-37
2024/01/14 03:24:01;;;;;;;14.37;13.40;;;3.30;99.90;;;;;;5037664;28;20321;-37
2024/01/14 03:26:27;;;;;;;13.80;12.87;;;3.30;99.90;;;;;;5031771;28;20186;-37
2024/01/14 03:28:52;;;;;;;15.17;13.87;;;3.30;99.90;;;;;;5027955;28;20926;-37
2024/01/14 03:31:18;;;;;;;15.43;14.23;;;3.30;99.90;;;;;;5025023;28;20190;-37
2024/01/14 03:33:44;;;;;;;13.97;12.97;;;3.20;99.90;;;;;;5027139;28;20209;-36
2024/01/14 03:36:16;;;;;;;15.07;13.90;;;3.10;99.90;;;;;;5033617;28;20205;-39
2024/01/14 03:38:43;;;;;;;14.63;13.50;;;3.00;99.90;;;;;;5027170;28;20194;-38
2024/01/14 03:41:08;;;;;;;15.05;14.05;;;3.10;99.90;;;;;;5040016;28;20213;-37
2024/01/14 03:43:40;;;;;;;13.93;13.03;;;3.10;99.90;;;;;;5035590;28;20197;-36
2024/01/14 03:46:05;;;;;;;14.18;13.30;;;3.20;99.90;;;;;;5028677;28;20440;-37
2024/01/14 03:48:31;;;;;;;14.10;13.00;;;3.10;99.90;;;;;;5028421;28;20238;-36
2024/01/14 03:50:57;;;;;;;14.30;13.20;;;3.20;99.90;;;;;;5032548;28;20182;-37
2024/01/14 03:53:23;;;;;;;14.50;13.37;;;3.20;99.90;;;;;;5033048;28;20417;-36
2024/01/14 03:55:49;;;;;;;14.30;13.20;;;3.30;99.90;;;;;;5024583;28;20178;-37
2024/01/14 03:58:14;;;;;;;16.30;15.00;;;3.30;99.90;;;;;;5038211;28;20198;-37
2024/01/14 04:00:40;;;;;;;15.90;14.50;;;3.40;99.90;;;;;;5037824;28;20248;-37
2024/01/14 04:03:06;;;;;;;14.90;13.80;;;3.40;99.90;;;;;;5036486;28;20576;-37
2024/01/14 04:05:31;;;;;;;14.27;13.27;;;3.40;99.90;;;;;;5033067;28;20182;-37
2024/01/14 04:07:57;;;;;;;14.43;13.40;;;3.40;99.90;;;;;;5041252;28;20177;-36
2024/01/14 04:10:22;;;;;;;14.10;13.10;;;3.40;99.90;;;;;;5026116;28;20224;-37
2024/01/14 04:12:48;;;;;;;14.53;13.50;;;3.50;99.90;;;;;;5037746;28;20201;-37
2024/01/14 04:15:14;;;;;;;14.57;13.50;;;3.40;99.90;;;;;;5029764;28;20185;-36
2024/01/14 04:17:39;;;;;;;14.93;13.83;;;3.40;99.90;;;;;;5040062;28;20255;-37
2024/01/14 04:20:06;;;;;;;14.53;13.57;;;3.50;99.90;;;;;;5036187;28;20226;-37
2024/01/14 04:22:31;;;;;;;14.43;13.38;;;3.40;99.90;;;;;;5034941;28;20218;-36
2024/01/14 04:24:57;;;;;;;14.73;13.73;;;3.40;99.90;;;;;;5027036;28;20691;-37
2024/01/14 04:27:22;;;;;;;14.80;13.40;;;3.40;99.90;;;;;;5030296;28;20182;-37
2024/01/14 04:29:48;;;;;;;15.07;13.97;;;3.50;99.90;;;;;;5023860;28;20170;-36
2024/01/14 04:32:13;;;;;;;14.97;13.87;;;3.40;99.90;;;;;;5032563;28;20443;-38
2024/01/14 04:34:39;;;;;;;14.67;13.50;;;3.30;99.90;;;;;;5031116;28;20183;-42
2024/01/14 04:37:05;;;;;;;14.83;13.83;;;3.20;99.90;;;;;;5037265;28;20193;-38
2024/01/14 04:39:30;;;;;;;15.27;14.17;;;3.10;99.90;;;;;;5030330;28;20189;-38
2024/01/14 04:41:57;;;;;;;15.30;14.20;;;3.00;99.90;;;;;;5033587;28;20662;-36
2024/01/14 04:44:22;;;;;;;15.63;14.43;;;3.00;99.90;;;;;;5031319;28;20240;-36
2024/01/14 04:46:48;;;;;;;15.30;14.20;;;3.00;99.90;;;;;;5033882;28;20197;-36
2024/01/14 04:49:14;;;;;;;14.40;13.50;;;3.00;99.90;;;;;;5026740;28;20213;-36
2024/01/14 04:51:39;;;;;;;15.70;14.57;;;3.00;99.90;;;;;;5034208;28;20200;-36
2024/01/14 04:54:07;;;;;;;15.50;14.30;;;3.00;99.90;;;;;;5033657;28;20268;-36
2024/01/14 04:56:33;;;;;;;16.00;14.80;;;3.00;99.90;;;;;;5026514;28;20291;-35
2024/01/14 04:58:59;;;;;;;15.85;14.65;;;3.00;99.90;;;;;;5031445;28;20186;-35
2024/01/14 05:01:24;;;;;;;16.20;14.90;;;3.00;99.90;;;;;;5037220;28;21127;-37
2024/01/14 05:03:50;;;;;;;15.17;14.10;;;3.00;99.90;;;;;;5021834;28;20229;-55
2024/01/14 05:06:15;;;;;;;15.30;14.00;;;3.00;99.90;;;;;;5037454;28;20604;-53
2024/01/14 05:08:42;;;;;;;15.57;14.47;;;3.10;99.90;;;;;;5010470;28;21770;-52
2024/01/14 05:11:07;;;;;;;15.90;14.70;;;3.10;99.90;;;;;;5023319;28;20259;-54
2024/01/14 05:13:33;;;;;;;16.13;14.77;;;3.10;99.90;;;;;;5035859;28;20284;-55
2024/01/14 05:15:59;;;;;;;16.65;15.10;;;3.10;99.90;;;;;;5026306;28;20189;-53
2024/01/14 05:18:25;;;;;;;17.10;15.70;;;3.10;99.90;;;;;;5025388;28;20217;-48
2024/01/14 05:20:50;;;;;;;17.80;16.27;;;3.10;99.90;;;;;;5029327;28;20181;-56
2024/01/14 05:23:16;;;;;;;16.27;14.80;;;3.20;99.90;;;;;;5025308;28;20303;-55
2024/01/14 05:25:42;;;;;;;16.03;14.60;;;3.20;99.90;;;;;;5030722;28;20186;-55
2024/01/14 05:28:07;;;;;;;15.10;13.90;;;3.20;99.90;;;;;;5035359;28;20689;-56
2024/01/14 05:30:33;;;;;;;15.57;14.47;;;3.20;99.90;;;;;;5033291;28;20189;-53
2024/01/14 05:32:58;;;;;;;15.73;14.33;;;3.30;99.90;;;;;;5037477;28;20184;-50
2024/01/14 05:35:24;;;;;;;16.97;15.67;;;3.30;99.90;;;;;;5037141;28;20190;-54
2024/01/14 05:37:50;;;;;;;16.80;15.50;;;3.20;99.90;;;;;;5032849;28;20209;-56
2024/01/14 05:40:15;;;;;;;15.43;14.23;;;3.20;99.90;;;;;;5026226;28;20914;-54
2024/01/14 05:42:42;;;;;;;15.87;14.70;;;3.20;99.90;;;;;;5022053;28;20225;-53
2024/01/14 05:45:12;;;;;;;15.15;14.00;;;3.10;99.90;;;;;;5030593;28;21404;-50
2024/01/14 05:47:38;;;;;;;15.55;14.35;;;3.10;99.90;;;;;;5040126;28;20190;-53
2024/01/14 05:50:04;;;;;;;17.27;15.77;;;3.00;99.90;;;;;;5037642;28;20197;-51
2024/01/14 05:52:30;;;;;;;15.88;14.40;;;2.90;99.90;;;;;;5034086;28;21243;-36
2024/01/14 05:54:56;;;;;;;15.80;14.60;;;2.80;99.90;;;;;;5038723;28;20186;-37
2024/01/14 05:57:22;;;;;;;16.63;15.23;;;2.80;99.90;;;;;;5029313;28;20210;-35
2024/01/14 05:59:47;;;;;;;16.25;14.55;;;2.80;99.90;;;;;;5032183;28;20323;-37
2024/01/14 06:02:13;;;;;;;16.20;14.77;;;2.70;99.90;;;;;;5026466;28;20568;-54
2024/01/14 06:04:39;;;;;;;16.53;15.20;;;2.70;99.90;;;;;;5024399;28;20178;-53
2024/01/14 06:07:04;;;;;;;16.00;14.70;;;2.70;99.90;;;;;;5031905;28;20222;-52
2024/01/14 06:09:30;;;;;;;16.23;14.77;;;2.70;99.90;;;;;;5041132;28;20220;-49
2024/01/14 06:11:56;;;;;;;15.85;14.38;;;2.70;99.90;;;;;;5034794;28;20254;-53
2024/01/14 06:14:21;;;;;;;15.87;14.47;;;2.70;99.90;;;;;;5036969;28;20184;-50
2024/01/14 06:16:47;;;;;;;15.77;14.57;;;2.70;99.90;;;;;;5034709;28;20554;-50
2024/01/14 06:19:13;;;;;;;15.73;14.53;;;2.70;99.90;;;;;;5040551;28;20225;-52
2024/01/14 06:21:42;;;;;;;16.00;14.80;;;2.70;99.90;;;;;;5029368;28;20228;-55
2024/01/14 06:24:07;;;;;;;16.25;15.05;;;2.80;99.90;;;;;;5039543;28;20215;-47
2024/01/14 06:26:33;;;;;;;16.47;14.93;;;2.80;99.90;;;;;;5037900;28;20186;-54
2024/01/14 06:28:59;;;;;;;16.50;15.00;;;2.70;99.90;;;;;;5036216;28;20423;-55
2024/01/14 06:31:24;;;;;;;14.80;13.70;;;2.70;99.90;;;;;;5036049;28;20193;-53
2024/01/14 06:33:50;;;;;;;15.50;14.30;;;2.80;99.90;;;;;;5027464;28;20188;-55
2024/01/14 06:36:19;;;;;;;15.33;14.03;;;2.80;99.90;;;;;;5026897;28;20910;-50
2024/01/14 06:38:44;;;;;;;15.35;14.15;;;2.70;99.90;;;;;;5038739;28;20592;-56
2024/01/14 06:41:20;;;;;;;15.77;14.53;;;2.70;99.90;;;;;;5028433;28;20201;-50
2024/01/14 06:43:46;;;;;;;15.88;14.68;;;2.80;96.90;;;;;;5038772;28;20544;-55
2024/01/14 06:46:12;;;;;;;17.80;16.20;;;2.80;99.90;;;;;;5039165;28;20520;-36
2024/01/14 06:48:38;;;;;;;15.80;14.60;;;2.90;16.00;;;;;;5030552;28;20242;-36
2024/01/14 06:51:04;;;;;;;15.90;14.70;;;2.80;56.20;;;;;;5039680;28;21586;-37
2024/01/14 06:53:29;;;;;;;15.93;14.57;;;2.80;99.90;;;;;;5028681;28;20192;-37
2024/01/14 06:55:55;;;;;;;15.53;14.30;;;2.80;99.90;;;;;;5038715;28;20268;-36
2024/01/14 06:58:21;;;;;;;15.70;14.50;;;2.80;99.90;;;;;;5025814;28;20263;-36
2024/01/14 07:00:46;;;;;;;15.67;14.33;;;2.80;99.90;;;;;;5030972;28;20189;-37
2024/01/14 07:03:12;;;;;;;16.33;15.03;;;2.80;99.90;;;;;;5029311;28;20330;-37
2024/01/14 07:05:37;;;;;;;15.87;14.67;;;2.80;99.90;;;;;;5030617;28;20192;-37
2024/01/14 07:08:04;;;;;;;16.83;15.33;;;2.80;99.90;;;;;;5007974;28;20715;-37
2024/01/14 07:10:30;;;;;;;16.08;14.82;;;2.80;99.90;;;;;;5034491;28;20753;-37
2024/01/14 07:12:56;;;;;;;15.90;14.60;;;2.90;99.90;;;;;;5034913;28;20185;-54
2024/01/14 07:15:22;;;;;;;15.60;14.60;;;2.90;1.00;;;;;;5031812;28;20201;-51
2024/01/14 07:17:49;;;;;;;16.00;14.80;;;2.90;1.00;;;;;;5032571;28;20192;-53
2024/01/14 07:20:14;;;;;;;16.58;15.27;;;2.90;1.00;;;;;;5036074;28;20359;-56
2024/01/14 07:22:40;;;;;;;16.90;15.30;;;2.90;1.00;;;;;;5035206;28;20227;-57
2024/01/14 07:25:06;;;;;;;15.60;14.43;;;3.00;1.00;;;;;;5030900;28;20197;-51
2024/01/14 07:27:33;;;;;;;15.40;14.27;;;3.00;99.90;;;;;;5033815;28;20193;-53
2024/01/14 07:29:58;;;;;;;16.13;14.82;;;3.00;1.00;;;;;;5036020;28;20276;-52
2024/01/14 07:32:24;;;;;;;16.03;14.60;;;3.00;1.00;;;;;;5039644;28;20192;-54
2024/01/14 07:34:50;;;;;;;15.23;14.00;;;3.00;90.30;;;;;;5016719;28;20217;-56
2024/01/14 07:37:15;;;;;;;15.77;14.57;;;3.00;99.90;;;;;;5034635;28;20182;-52
2024/01/14 07:39:41;;;;;;;15.30;14.20;;;3.00;99.90;;;;;;5037186;28;20193;-54
2024/01/14 07:42:06;;;;;;;16.80;15.40;;;2.90;99.90;;;;;;5031768;28;20209;-54
2024/01/14 07:44:32;;;;;;;16.63;15.23;;;2.90;99.90;;;;;;5025019;28;20186;-53
2024/01/14 07:46:57;;;;;;;15.20;13.90;;;2.90;1.00;;;;;;5034577;28;20186;-38
2024/01/14 07:49:23;;;;;;;15.00;13.80;;;2.90;1.00;;;;;;5036576;28;20951;-37
2024/01/14 07:51:49;;;;;;;15.50;14.33;;;2.90;99.90;;;;;;5037065;28;20343;-37
2024/01/14 07:54:14;;;;;;;15.77;14.57;;;2.90;99.90;;;;;;5035238;28;20196;-35
2024/01/14 07:56:40;;;;;;;16.37;14.90;;;3.00;99.90;;;;;;5037860;28;20193;-36
2024/01/14 07:59:05;;;;;;;16.30;14.80;;;3.00;99.90;;;;;;5027414;28;20655;-36
2024/01/14 08:01:31;;;;;;;14.90;13.80;;;3.10;99.90;;;;;;5037480;28;20208;-36
2024/01/14 08:03:57;;;;;;;16.90;15.33;;;3.10;99.90;;;;;;5037519;28;20266;-35
2024/01/14 08:06:24;;;;;;;15.90;14.63;;;3.10;76.30;;;;;;5039930;28;20193;-36
2024/01/14 08:08:49;;;;;;;15.32;14.18;;;3.00;1.00;;;;;;5031772;28;20273;-36
2024/01/14 08:11:16;;;;;;;15.67;14.37;;;3.10;8.60;;;;;;5016440;28;20197;-36
2024/01/14 08:13:42;;;;;;;15.25;14.10;;;3.10;1.00;;;;;;5030111;28;20532;-36
2024/01/14 08:16:08;;;;;;;16.37;15.07;;;3.10;1.00;;;;;;5030881;28;20257;-36
2024/01/14 08:18:33;;;;;;;17.67;16.13;;;3.00;1.00;;;;;;5025153;28;20225;-36
2024/01/14 08:21:00;;;;;;;15.10;13.90;;;3.00;58.80;;;;;;5028986;28;20182;-37
2024/01/14 08:23:26;;;;;;;15.10;14.00;;;3.10;65.40;;;;;;5012943;28;20237;-37
2024/01/14 08:25:52;;;;;;;16.40;13.65;;;3.10;1.00;;;;;;5035047;28;21106;-37
2024/01/14 08:28:18;;;;;;;14.87;13.60;;;3.10;1.00;;;;;;5023616;28;20195;-36
2024/01/14 08:30:43;;;;;;;14.33;13.30;;;3.20;1.00;;;;;;5028498;28;20196;-36
2024/01/14 08:33:09;;;;;;;15.50;14.10;;;3.10;1.00;;;;;;5034225;28;21038;-37
2024/01/14 08:35:35;;;;;;;16.20;15.00;;;3.10;94.40;;;;;;5024903;28;20589;-37
2024/01/14 08:38:00;;;;;;;17.13;15.73;;;3.00;99.90;;;;;;5024371;28;20663;-37
2024/01/14 08:40:26;;;;;;;16.90;15.47;;;2.90;1.00;;;;;;5023701;28;20183;-37
2024/01/14 08:42:52;;;;;;;17.15;15.60;;;2.80;1.00;;;;;;5037582;28;20224;-37
2024/01/14 08:45:18;;;;;;;16.50;15.30;;;2.80;1.00;;;;;;5022740;28;20197;-37
2024/01/14 08:47:43;;;;;;;16.20;15.10;;;2.80;1.00;;;;;;5035022;28;20189;-37
2024/01/14 08:50:10;;;;;;;16.50;15.30;;;2.80;1.00;;;;;;5035642;28;20189;-39
2024/01/14 08:52:37;;;;;;;16.48;15.18;;;2.90;1.00;;;;;;5034073;28;20991;-37
2024/01/14 08:55:04;;;;;;;16.08;14.88;;;2.90;1.00;;;;;;5029850;28;20660;-36
2024/01/14 08:57:30;;;;;;;16.70;15.50;;;2.90;1.00;;;;;;5037078;28;20192;-37
2024/01/14 08:59:57;;;;;;;17.40;15.80;;;2.90;1.00;;;;;;5030615;28;20654;-37
2024/01/14 09:02:23;;;;;;;16.50;15.23;;;3.00;99.90;;;;;;5031824;28;20201;-36
2024/01/14 09:04:48;;;;;;;17.50;16.10;;;3.10;99.90;;;;;;5005746;28;20779;-36
2024/01/14 09:07:14;;;;;;;16.57;15.37;;;3.10;99.90;;;;;;5006567;28;20424;-37
2024/01/14 09:09:39;;;;;;;15.40;14.20;;;3.10;99.90;;;;;;5030011;28;20667;-37
2024/01/14 09:12:05;;;;;;;17.00;15.73;;;3.20;99.90;;;;;;5021853;28;20209;-36
2024/01/14 09:14:31;;;;;;;16.33;14.83;;;3.30;1.00;;;;;;5025268;28;20190;-37
2024/01/14 09:16:57;;;;;;;16.65;15.18;;;3.40;99.90;;;;;;5029168;28;21161;-37
2024/01/14 09:19:23;;;;;;;16.70;15.40;;;3.40;99.90;;;;;;5022922;28;20250;-37
2024/01/14 09:21:49;;;;;;;15.75;14.63;;;3.40;1.00;;;;;;5032813;28;20237;-37
2024/01/14 09:24:14;;;;;;;15.97;14.67;;;3.50;1.00;;;;;;5023685;28;20224;-37
2024/01/14 09:26:40;;;;;;;16.17;14.87;;;3.50;99.90;;;;;;5025067;28;20196;-55
2024/01/14 09:29:06;;;;;;;15.17;14.07;;;3.60;1.00;;;;;;5028861;28;20190;-52
2024/01/14 09:31:31;;;;;;;16.33;15.07;;;3.60;1.00;;;;;;5021223;28;20209;-54
2024/01/14 09:33:57;;;;;;;16.07;14.57;;;3.50;1.00;;;;;;5033749;28;20280;-54
2024/01/14 09:36:22;;;;;;;15.40;14.20;;;3.50;99.90;;;;;;5023620;28;21000;-56
2024/01/14 09:38:48;;;;;;;15.17;14.07;;;3.50;1.00;;;;;;5020596;28;20198;-54
2024/01/14 09:41:37;;;;;;;14.93;13.73;;;3.40;1.00;;;;;;5018060;28;20198;-52
2024/01/14 09:44:04;;;;;;;15.70;14.35;;;3.50;99.90;;;;;;5023399;28;20196;-51
2024/01/14 09:46:31;;;;;;;15.27;13.95;;;3.60;99.90;;;;;;5023673;28;20182;-56
2024/01/14 09:48:58;;;;;;;16.23;14.85;;;3.60;99.90;;;;;;5000932;28;20207;-51
2024/01/14 09:51:30;;;;;;;15.60;14.30;;;3.70;1.00;;;;;;5022283;28;20261;-51
2024/01/14 09:53:58;;;;;;;15.80;14.60;;;3.70;1.00;;;;;;5033916;28;20182;-53
2024/01/14 09:56:24;;;;;;;14.98;13.88;;;3.80;99.90;;;;;;5029819;28;20235;-52
2024/01/14 09:58:53;;;;;;;14.87;13.77;;;3.70;1.00;;;;;;5023916;28;20195;-55
2024/01/14 10:01:21;;;;;;;14.88;13.70;;;3.80;1.00;;;;;;5028229;28;20929;-56
2024/01/14 10:03:48;;;;;;;15.68;14.43;;;3.70;1.00;;;;;;5033972;28;20569;-53
2024/01/14 10:06:15;;;;;;;15.68;14.40;;;3.70;1.00;;;;;;5021821;28;20225;-56
2024/01/14 10:08:40;;;;;;;14.32;13.20;;;3.70;1.00;;;;;;5032553;28;20196;-54
2024/01/14 10:11:06;;;;;;;15.20;14.00;;;3.70;99.90;;;;;;5027513;28;20182;-51
2024/01/14 10:13:33;;;;;;;14.82;13.50;;;3.80;99.90;;;;;;5028330;28;20223;-52
2024/01/14 10:15:59;;;;;;;15.52;14.30;;;3.90;1.00;;;;;;5026260;28;20181;-51
2024/01/14 10:18:24;;;;;;;16.03;14.63;;;3.90;1.00;;;;;;5024753;28;20225;-53
2024/01/14 10:20:51;;;;;;;16.00;14.70;;;4.00;1.00;;;;;;5025686;28;20179;-52
2024/01/14 10:23:17;;;;;;;15.30;14.00;;;4.10;99.90;;;;;;5032584;28;20648;-52
2024/01/14 10:25:42;;;;;;;14.60;13.50;;;4.10;99.90;;;;;;5028496;28;20186;-55
2024/01/14 10:28:09;;;;;;;14.93;13.57;;;4.20;99.90;;;;;;5025176;28;20185;-50
2024/01/14 10:30:35;;;;;;;15.10;13.90;;;4.30;99.90;;;;;;5028881;28;20182;-56
2024/01/14 10:33:02;;;;;;;14.70;13.53;;;4.30;73.70;;;;;;5027544;28;20268;-56
2024/01/14 10:35:28;;;;;;;14.32;13.32;;;4.40;1.00;;;;;;5005155;28;20226;-54
2024/01/14 10:37:54;;;;;;;15.73;14.33;;;4.40;1.00;;;;;;5033312;28;20305;-48
2024/01/14 10:40:20;;;;;;;13.83;12.83;;;4.30;1.00;;;;;;5023139;28;20264;-53
2024/01/14 10:42:46;;;;;;;13.80;12.60;;;4.20;1.00;;;;;;5036234;28;20202;-47
2024/01/14 10:45:11;;;;;;;14.13;13.03;;;4.30;1.00;;;;;;5027536;28;20183;-54
2024/01/14 10:47:39;;;;;;;15.10;13.90;;;4.30;1.00;;;;;;5035459;28;20277;-51
2024/01/14 10:50:08;;;;;;;15.20;14.00;;;4.30;1.00;;;;;;5037720;28;20182;-44
2024/01/14 10:52:39;;;;;;;14.20;12.93;;;4.40;1.00;;;;;;5029003;28;20545;-50
2024/01/14 10:55:43;;;;;;;15.55;14.25;;;4.40;1.00;;;;;;5038806;28;20201;-52
2024/01/14 10:58:28;;;;;;;16.95;14.73;;;4.40;1.00;;;;;;5038698;28;20546;-54
2024/01/14 11:00:58;;;;;;;15.60;14.30;;;4.50;1.00;;;;;;5028667;28;20239;-55
2024/01/14 11:03:26;;;;;;;17.23;15.50;;;4.60;1.00;;;;;;5036974;28;20202;-56
2024/01/14 11:05:53;;;;;;;15.65;14.27;;;4.50;1.00;;;;;;5028626;28;20189;-52
2024/01/14 11:08:21;;;;;;;15.00;13.80;;;4.50;1.00;;;;;;5030309;28;20292;-54
2024/01/14 11:10:47;;;;;;;14.88;13.68;;;4.50;1.00;;;;;;5036421;28;20255;-53
2024/01/14 11:13:28;;;;;;;14.35;13.35;;;4.40;1.00;;;;;;5038624;28;20550;-57
2024/01/14 11:16:02;;;;;;;15.00;13.80;;;4.40;1.00;;;;;;5052424;28;20197;-55
2024/01/14 11:18:47;;;;;;;14.88;13.65;;;4.40;1.00;;;;;;5015084;28;20253;-54
2024/01/14 11:21:38;;;;;;;15.70;14.50;;;4.40;1.00;;;;;;5014884;28;20224;-56
2024/01/14 11:24:05;;;;;;;15.00;13.88;;;4.30;1.00;;;;;;5026517;28;20174;-53
2024/01/14 11:26:31;;;;;;;16.10;14.75;;;4.40;1.00;;;;;;5033524;28;20178;-54
2024/01/14 11:28:59;;;;;;;15.37;14.10;;;4.40;1.00;;;;;;5032534;28;20186;-53
2024/01/14 11:32:02;;;;;;;14.85;13.77;;;4.30;1.00;;;;;;5026267;28;20424;-50
2024/01/14 11:34:46;;;;;;;14.38;13.38;;;4.30;1.00;;;;;;5039634;28;20192;-55
2024/01/14 11:37:35;;;;;;;14.30;13.20;;;4.20;1.00;;;;;;5034435;28;20175;-37
2024/01/14 11:40:06;;;;;;;15.52;14.32;;;4.20;99.90;;;;;;5029297;28;20225;-36
2024/01/14 11:42:36;;;;;;;14.80;13.63;;;4.20;1.00;;;;;;5004857;28;20206;-37
2024/01/14 11:45:03;;;;;;;14.93;13.80;;;4.20;1.00;;;;;;5034142;28;20247;-36
2024/01/14 11:47:45;;;;;;;15.38;14.00;;;4.30;1.00;;;;;;5029408;28;20896;-36
2024/01/14 11:50:14;;;;;;;16.00;14.70;;;4.30;1.00;;;;;;5040817;28;20544;-36
2024/01/14 11:52:45;;;;;;;15.07;13.77;;;4.30;1.00;;;;;;5029182;28;20539;-36
2024/01/14 11:55:14;;;;;;;15.13;13.82;;;4.30;1.00;;;;;;5036869;28;20190;-36
2024/01/14 11:57:44;;;;;;;13.90;12.90;;;4.30;1.00;;;;;;5024913;28;20190;-38
2024/01/14 12:00:11;;;;;;;15.05;13.93;;;4.20;1.00;;;;;;5029130;28;20704;-36
2024/01/14 12:02:37;;;;;;;14.35;13.25;;;4.20;1.00;;;;;;5039343;28;20260;-36
2024/01/14 12:05:19;;;;;;;14.43;13.30;;;4.30;1.00;;;;;;5036775;28;20558;-36
2024/01/14 12:07:45;;;;;;;15.20;14.00;;;4.20;1.00;;;;;;5032933;28;20405;-37
2024/01/14 12:10:15;;;;;;;14.70;13.50;;;4.20;1.00;;;;;;5038335;28;20213;-36
2024/01/14 12:12:42;;;;;;;15.07;13.65;;;4.20;1.00;;;;;;5031957;28;20181;-38
2024/01/14 12:15:14;;;;;;;15.70;14.32;;;4.30;1.00;;;;;;5030732;28;20193;-39
2024/01/14 12:17:39;;;;;;;14.55;13.48;;;4.20;1.00;;;;;;5029605;28;20190;-37
2024/01/14 12:20:07;;;;;;;15.37;14.27;;;4.30;1.00;;;;;;5028447;28;20232;-35
2024/01/14 12:22:35;;;;;;;14.90;13.70;;;4.30;1.00;;;;;;5045430;28;20237;-36
2024/01/14 12:25:01;;;;;;;15.20;14.10;;;4.20;1.00;;;;;;5033185;28;20186;-36
2024/01/14 12:27:27;;;;;;;13.70;12.68;;;4.20;1.00;;;;;;5033534;28;20708;-36
2024/01/14 12:29:54;;;;;;;15.10;13.90;;;4.30;1.00;;;;;;5029648;28;20246;-36
2024/01/14 12:32:20;;;;;;;14.00;13.00;;;4.30;1.00;;;;;;5035283;28;20200;-36
2024/01/14 12:34:49;;;;;;;13.93;12.90;;;4.30;1.00;;;;;;5039390;28;20190;-36
2024/01/14 12:37:15;;;;;;;13.80;12.75;;;4.30;1.00;;;;;;5034863;28;20270;-53
2024/01/14 12:39:40;;;;;;;14.40;13.30;;;4.30;1.00;;;;;;5037663;28;21028;-52